Time;durP1;ratioP1;P1;durP2;ratioP2;P2;SDS_P1;SDS_P2;PMS_P1;PMS_P2;Temp;Humidity;BMP_temperature;BMP_pressure;BME280_temperature;BME280_humidity;BME280_pressure;Samples;Min_cycle;Max_cycle;Signal;HPM_P1;HPM_P2
2021/11/26 00:00:22;;;;;;;34.83;15.43;;;5.50;99.90;;;;;;4945668;28;20452;-84
2021/11/26 00:02:50;;;;;;;36.40;16.30;;;5.50;99.90;;;;;;4946491;29;20470;-84
2021/11/26 00:05:18;;;;;;;34.53;14.53;;;5.50;99.90;;;;;;4951302;29;20459;-84
2021/11/26 00:07:47;;;;;;;41.73;17.47;;;5.60;99.90;;;;;;4950752;29;20484;-84
2021/11/26 00:10:15;;;;;;;31.97;14.43;;;5.80;99.90;;;;;;4952844;29;20961;-83
2021/11/26 00:12:51;;;;;;;31.73;15.30;;;5.60;99.90;;;;;;4936740;29;20548;-83
2021/11/26 00:15:23;;;;;;;27.87;13.27;;;5.60;99.90;;;;;;4936089;29;20459;-83
2021/11/26 00:17:53;;;;;;;38.90;16.70;;;5.60;99.90;;;;;;4940043;28;20520;-84
2021/11/26 00:20:21;;;;;;;31.40;15.75;;;5.60;99.90;;;;;;4939358;28;20464;-84
2021/11/26 00:22:49;;;;;;;34.00;16.53;;;5.60;99.90;;;;;;4950966;29;20739;-84
2021/11/26 00:25:18;;;;;;;29.10;14.50;;;5.70;99.90;;;;;;4939513;28;20459;-84
2021/11/26 00:27:49;;;;;;;35.33;16.00;;;5.60;99.90;;;;;;4952092;28;20913;-84
2021/11/26 00:30:17;;;;;;;40.63;16.63;;;5.50;99.90;;;;;;4931624;29;20498;-86
2021/11/26 00:32:45;;;;;;;36.23;15.67;;;5.50;99.90;;;;;;4939433;29;20465;-85
2021/11/26 00:35:13;;;;;;;34.53;15.18;;;5.50;99.90;;;;;;4950663;29;20833;-85
2021/11/26 00:37:42;;;;;;;26.83;13.33;;;5.50;99.90;;;;;;4947827;29;20239;-84
2021/11/26 00:40:11;;;;;;;35.47;15.97;;;5.50;99.90;;;;;;4951048;29;21000;-84
2021/11/26 00:42:42;;;;;;;30.13;14.50;;;5.50;99.90;;;;;;4956769;28;20676;-84
2021/11/26 00:45:13;;;;;;;36.23;16.50;;;5.50;99.90;;;;;;4941240;29;20980;-85
2021/11/26 00:47:42;;;;;;;32.80;16.10;;;5.60;99.90;;;;;;4948072;28;21017;-84
2021/11/26 00:50:13;;;;;;;28.13;14.30;;;5.50;99.90;;;;;;4937134;28;20487;-83
2021/11/26 00:52:41;;;;;;;35.27;15.10;;;5.50;99.90;;;;;;4950147;28;20455;-82
2021/11/26 00:55:11;;;;;;;30.77;14.37;;;5.60;99.90;;;;;;4949695;28;20960;-84
2021/11/26 00:57:40;;;;;;;32.80;13.67;;;5.60;99.90;;;;;;4959129;28;20483;-84
2021/11/26 01:00:13;;;;;;;31.98;15.48;;;5.50;99.90;;;;;;4947243;28;20464;-83
2021/11/26 01:02:42;;;;;;;30.70;13.10;;;5.50;99.90;;;;;;4946414;28;20208;-84
2021/11/26 01:05:13;;;;;;;31.20;13.47;;;5.50;99.90;;;;;;4949520;28;20200;-84
2021/11/26 01:07:41;;;;;;;39.63;15.50;;;5.50;99.90;;;;;;4949073;29;20490;-84
2021/11/26 01:10:12;;;;;;;35.70;14.63;;;5.60;99.90;;;;;;4947060;29;20487;-83
2021/11/26 01:12:41;;;;;;;36.57;16.10;;;5.50;99.90;;;;;;4948190;29;20463;-84
2021/11/26 01:15:12;;;;;;;32.20;13.80;;;5.60;99.90;;;;;;4953877;28;20459;-84
2021/11/26 01:17:42;;;;;;;34.85;16.00;;;5.60;99.90;;;;;;4944662;28;20481;-84
2021/11/26 01:20:13;;;;;;;33.80;15.40;;;5.80;99.90;;;;;;4950892;29;20204;-84
2021/11/26 01:22:42;;;;;;;32.42;14.23;;;5.50;99.90;;;;;;4951500;29;20464;-84
2021/11/26 01:25:11;;;;;;;33.38;17.00;;;5.50;99.90;;;;;;4951016;29;20255;-84
2021/11/26 01:27:40;;;;;;;30.17;13.80;;;5.50;99.90;;;;;;4950708;29;20567;-84
2021/11/26 01:30:14;;;;;;;28.67;14.07;;;5.70;99.90;;;;;;4950023;28;20654;-83
2021/11/26 01:32:43;;;;;;;37.27;15.87;;;5.50;99.90;;;;;;4945888;29;20208;-83
2021/11/26 01:35:12;;;;;;;34.65;14.38;;;5.50;99.90;;;;;;4954570;28;20458;-84
2021/11/26 01:37:40;;;;;;;34.92;13.80;;;5.50;99.90;;;;;;4953371;28;20223;-83
2021/11/26 01:40:10;;;;;;;28.90;14.25;;;5.50;99.90;;;;;;4958079;28;20668;-84
2021/11/26 01:42:38;;;;;;;27.20;14.00;;;5.50;99.90;;;;;;4951821;29;20238;-84
2021/11/26 01:45:08;;;;;;;30.20;16.53;;;5.50;99.90;;;;;;4933920;29;20455;-84
2021/11/26 01:47:36;;;;;;;31.73;14.85;;;5.50;99.90;;;;;;4949360;28;20489;-83
2021/11/26 01:50:07;;;;;;;27.60;14.37;;;5.50;99.90;;;;;;4943067;29;20819;-84
2021/11/26 01:52:36;;;;;;;36.47;14.63;;;5.50;99.90;;;;;;4952235;29;20830;-84
2021/11/26 01:55:05;;;;;;;35.10;15.20;;;5.50;99.90;;;;;;4952922;29;20256;-84
2021/11/26 01:57:34;;;;;;;29.17;15.67;;;5.50;99.90;;;;;;4951858;29;20220;-84
2021/11/26 02:00:05;;;;;;;34.97;15.13;;;5.60;99.90;;;;;;4952430;28;20472;-84
2021/11/26 02:02:34;;;;;;;26.27;13.73;;;5.60;99.90;;;;;;4951204;29;20460;-83
2021/11/26 02:05:02;;;;;;;24.97;13.30;;;5.60;99.90;;;;;;4935931;29;20755;-84
2021/11/26 02:07:32;;;;;;;29.10;14.10;;;5.60;99.90;;;;;;4934868;29;20460;-84
2021/11/26 02:10:00;;;;;;;25.60;13.60;;;5.70;99.90;;;;;;4944490;29;20540;-84
2021/11/26 02:12:28;;;;;;;31.45;13.82;;;5.50;99.90;;;;;;4942601;29;20469;-84
2021/11/26 02:14:58;;;;;;;34.10;14.37;;;5.50;99.90;;;;;;4949730;29;20196;-84
2021/11/26 02:17:26;;;;;;;34.45;15.77;;;5.70;99.90;;;;;;4949746;28;20539;-85
2021/11/26 02:19:57;;;;;;;30.63;13.75;;;5.70;99.90;;;;;;4951387;28;20666;-84
2021/11/26 02:22:26;;;;;;;35.50;15.33;;;5.50;99.90;;;;;;4955023;28;20223;-85
2021/11/26 02:24:54;;;;;;;30.93;13.30;;;5.80;99.90;;;;;;4945282;28;20466;-85
2021/11/26 02:27:23;;;;;;;29.00;13.63;;;5.50;99.90;;;;;;4953984;29;20464;-84
2021/11/26 02:29:54;;;;;;;23.20;12.33;;;5.50;99.90;;;;;;4955439;29;20478;-83
2021/11/26 02:32:24;;;;;;;28.93;13.63;;;5.50;99.90;;;;;;4956091;29;20456;-83
2021/11/26 02:34:54;;;;;;;27.73;13.13;;;5.50;99.90;;;;;;4951271;29;20551;-84
2021/11/26 02:37:23;;;;;;;31.40;15.00;;;5.80;99.90;;;;;;4945257;29;20216;-84
2021/11/26 02:39:51;;;;;;;28.48;12.80;;;5.50;99.90;;;;;;4951472;28;20208;-85
2021/11/26 02:42:24;;;;;;;32.20;14.57;;;5.50;99.90;;;;;;4961413;28;20212;-83
2021/11/26 02:44:53;;;;;;;34.72;14.50;;;5.50;99.90;;;;;;4948000;29;20205;-82
2021/11/26 02:47:21;;;;;;;26.40;13.00;;;5.50;99.90;;;;;;4954786;29;20211;-84
2021/11/26 02:49:49;;;;;;;35.50;13.73;;;5.50;99.90;;;;;;4954146;29;20479;-84
2021/11/26 02:52:18;;;;;;;26.37;14.03;;;5.70;99.90;;;;;;4951299;29;21251;-84
2021/11/26 02:54:47;;;;;;;27.90;14.03;;;5.50;99.90;;;;;;4954300;29;20452;-85
2021/11/26 02:57:15;;;;;;;28.87;13.70;;;5.50;99.90;;;;;;4945250;28;20544;-83
2021/11/26 02:59:43;;;;;;;32.40;14.70;;;5.60;99.90;;;;;;4950599;28;20451;-83
2021/11/26 03:02:12;;;;;;;26.92;13.00;;;5.50;99.90;;;;;;4952137;29;20464;-83
2021/11/26 03:04:40;;;;;;;28.50;15.40;;;5.50;99.90;;;;;;4951457;29;20201;-85
2021/11/26 03:07:10;;;;;;;33.53;14.50;;;5.50;99.90;;;;;;4953236;28;20467;-84
2021/11/26 03:09:44;;;;;;;34.67;15.10;;;5.50;99.90;;;;;;4957667;28;20510;-84
2021/11/26 03:12:15;;;;;;;27.53;13.70;;;5.60;99.90;;;;;;4953542;29;20743;-84
2021/11/26 03:14:43;;;;;;;30.17;12.95;;;5.50;99.90;;;;;;4953110;28;20846;-84
2021/11/26 03:17:11;;;;;;;35.93;14.40;;;5.50;99.90;;;;;;4951012;29;20243;-84
2021/11/26 03:19:40;;;;;;;28.42;14.02;;;5.50;99.90;;;;;;4949305;29;20452;-86
2021/11/26 03:22:09;;;;;;;28.23;12.30;;;5.50;99.90;;;;;;4948463;29;20861;-85
2021/11/26 03:24:37;;;;;;;30.70;13.70;;;5.50;99.90;;;;;;4950131;28;20519;-85
2021/11/26 03:27:06;;;;;;;32.75;13.90;;;5.80;99.90;;;;;;4935374;28;20456;-84
2021/11/26 03:29:35;;;;;;;27.13;12.20;;;5.60;99.90;;;;;;4946257;29;20213;-85
2021/11/26 03:32:04;;;;;;;21.43;11.30;;;5.50;99.90;;;;;;4950269;29;20200;-85
2021/11/26 03:34:32;;;;;;;27.33;12.97;;;5.50;99.90;;;;;;4932229;28;20478;-85
2021/11/26 03:37:00;;;;;;;28.38;12.75;;;5.50;99.90;;;;;;4945045;28;20973;-85
2021/11/26 03:39:28;;;;;;;27.98;12.88;;;5.50;99.90;;;;;;4952076;29;20236;-85
2021/11/26 03:41:57;;;;;;;24.60;12.05;;;5.50;99.90;;;;;;4952569;29;20280;-85
2021/11/26 03:44:25;;;;;;;22.67;12.83;;;5.50;99.90;;;;;;4947595;29;20197;-83
2021/11/26 03:46:59;;;;;;;31.75;12.48;;;5.50;99.90;;;;;;4954122;29;20506;-83
2021/11/26 03:49:28;;;;;;;24.30;12.20;;;5.70;99.90;;;;;;4954097;28;20220;-82
2021/11/26 03:51:56;;;;;;;23.80;10.70;;;5.50;99.90;;;;;;4952875;28;20232;-83
2021/11/26 03:54:24;;;;;;;23.93;12.57;;;5.50;99.90;;;;;;4953832;29;20283;-84
2021/11/26 03:56:52;;;;;;;27.33;13.90;;;5.70;99.90;;;;;;4953376;29;20533;-81
2021/11/26 03:59:20;;;;;;;18.40;11.80;;;5.50;99.90;;;;;;4952014;28;20476;-84
2021/11/26 04:01:49;;;;;;;24.50;10.95;;;5.50;99.90;;;;;;4937050;29;20204;-83
2021/11/26 04:04:18;;;;;;;28.63;13.67;;;5.50;99.90;;;;;;4954675;29;20236;-82
2021/11/26 04:06:46;;;;;;;28.20;15.90;;;5.80;99.90;;;;;;4961751;28;20460;-84
2021/11/26 04:09:15;;;;;;;25.60;11.23;;;5.50;99.90;;;;;;4956722;28;20480;-83
2021/11/26 04:11:43;;;;;;;26.93;12.60;;;5.50;99.90;;;;;;4936872;29;20503;-83
2021/11/26 04:14:22;;;;;;;28.53;12.70;;;5.80;99.90;;;;;;4944000;29;20487;-83
2021/11/26 04:16:50;;;;;;;24.97;12.60;;;5.50;99.90;;;;;;4953730;29;20475;-82
2021/11/26 04:19:20;;;;;;;27.53;12.13;;;5.50;99.90;;;;;;4953435;29;20516;-84
2021/11/26 04:21:48;;;;;;;27.63;13.52;;;5.50;99.90;;;;;;4953788;29;20815;-84
2021/11/26 04:24:16;;;;;;;28.90;12.38;;;5.40;99.90;;;;;;4952775;28;20224;-83
2021/11/26 04:26:45;;;;;;;27.77;12.40;;;5.40;99.90;;;;;;4944757;29;20211;-83
2021/11/26 04:29:13;;;;;;;26.98;12.50;;;5.30;99.90;;;;;;4946758;29;20296;-83
2021/11/26 04:31:41;;;;;;;27.17;12.17;;;5.30;99.90;;;;;;4953785;29;20244;-83
2021/11/26 04:34:10;;;;;;;24.92;12.05;;;5.30;99.90;;;;;;4953363;29;20471;-83
2021/11/26 04:36:39;;;;;;;27.80;13.97;;;5.30;99.90;;;;;;4953397;28;20264;-83
2021/11/26 04:39:07;;;;;;;25.13;13.10;;;5.30;99.90;;;;;;4951025;29;20498;-83
2021/11/26 04:41:36;;;;;;;23.50;11.70;;;5.40;99.90;;;;;;4953169;28;20836;-84
2021/11/26 04:44:04;;;;;;;20.20;10.88;;;5.40;99.90;;;;;;4952631;29;20543;-85
2021/11/26 04:46:33;;;;;;;26.87;12.30;;;5.40;99.90;;;;;;4945400;29;20621;-84
2021/11/26 04:49:04;;;;;;;21.50;12.82;;;5.40;99.90;;;;;;4926787;29;20488;-85
2021/11/26 04:51:32;;;;;;;24.67;12.30;;;5.40;99.90;;;;;;4923376;28;20255;-83
2021/11/26 04:54:04;;;;;;;23.33;11.33;;;5.40;99.90;;;;;;4956041;28;20471;-85
2021/11/26 04:56:33;;;;;;;21.33;10.30;;;5.20;99.90;;;;;;4956969;28;20736;-84
2021/11/26 04:59:01;;;;;;;24.90;13.60;;;5.20;99.90;;;;;;4946548;29;20224;-84
2021/11/26 05:01:29;;;;;;;25.50;12.20;;;5.20;99.90;;;;;;4945193;28;20468;-85
2021/11/26 05:03:58;;;;;;;28.85;12.20;;;5.30;99.90;;;;;;4930291;29;20998;-85
2021/11/26 05:06:26;;;;;;;25.55;11.48;;;5.20;99.90;;;;;;4950437;29;20631;-84
2021/11/26 05:08:54;;;;;;;23.85;11.65;;;5.20;99.90;;;;;;4936824;29;20227;-83
2021/11/26 05:11:24;;;;;;;22.37;11.60;;;5.00;99.90;;;;;;4947855;29;20216;-84
2021/11/26 05:13:52;;;;;;;29.17;14.38;;;5.10;99.90;;;;;;4952953;29;20925;-83
2021/11/26 05:16:20;;;;;;;28.50;13.30;;;5.00;99.90;;;;;;4948108;28;20201;-82
2021/11/26 05:18:49;;;;;;;30.45;12.80;;;5.00;99.90;;;;;;4949928;29;20471;-84
2021/11/26 05:21:17;;;;;;;26.70;11.80;;;5.20;99.90;;;;;;4936023;29;20209;-84
2021/11/26 05:23:45;;;;;;;25.13;12.02;;;5.20;99.90;;;;;;4948030;28;20197;-85
2021/11/26 05:26:14;;;;;;;30.55;13.75;;;5.10;99.90;;;;;;4925670;29;20208;-83
2021/11/26 05:28:44;;;;;;;26.70;14.60;;;4.90;99.90;;;;;;4952905;29;20224;-86
2021/11/26 05:31:12;;;;;;;26.33;13.13;;;4.80;99.90;;;;;;4952596;29;20220;-84
2021/11/26 05:33:40;;;;;;;28.00;12.88;;;4.70;99.90;;;;;;4933318;29;20374;-84
2021/11/26 05:36:08;;;;;;;27.80;12.93;;;4.70;99.90;;;;;;4950441;29;20266;-85
2021/11/26 05:38:36;;;;;;;24.38;11.80;;;4.70;99.90;;;;;;4947272;29;20279;-85
2021/11/26 05:41:05;;;;;;;28.60;13.50;;;4.90;99.90;;;;;;4948764;29;20212;-85
2021/11/26 05:43:33;;;;;;;28.88;12.05;;;5.00;99.90;;;;;;4935474;29;20459;-86
2021/11/26 05:46:03;;;;;;;25.53;11.77;;;5.10;99.90;;;;;;4950074;28;20219;-86
2021/11/26 05:48:33;;;;;;;23.50;13.18;;;5.20;99.90;;;;;;4951006;28;20487;-87
2021/11/26 05:51:01;;;;;;;28.98;12.70;;;5.20;99.90;;;;;;4953022;28;20828;-86
2021/11/26 05:53:29;;;;;;;30.25;13.13;;;5.30;99.90;;;;;;4956665;29;20280;-86
2021/11/26 05:56:00;;;;;;;24.63;10.90;;;5.30;99.90;;;;;;4953743;29;20188;-86
2021/11/26 05:58:29;;;;;;;28.02;13.65;;;5.50;99.90;;;;;;4956980;29;20315;-86
2021/11/26 06:00:57;;;;;;;25.03;12.37;;;5.30;99.90;;;;;;4956347;28;20204;-86
2021/11/26 06:03:27;;;;;;;29.90;13.00;;;5.30;99.90;;;;;;4970111;28;21033;-86
2021/11/26 06:05:55;;;;;;;28.60;11.63;;;5.40;99.90;;;;;;4956134;29;20463;-84
2021/11/26 06:08:23;;;;;;;24.33;11.35;;;5.40;99.90;;;;;;4956933;29;20224;-86
2021/11/26 06:10:51;;;;;;;20.60;10.52;;;5.40;99.90;;;;;;4955574;29;20208;-85
2021/11/26 06:13:19;;;;;;;21.73;11.30;;;5.40;99.90;;;;;;4962135;28;20577;-85
2021/11/26 06:15:48;;;;;;;25.77;12.03;;;5.40;99.90;;;;;;4940091;28;20465;-86
2021/11/26 06:18:16;;;;;;;23.25;11.75;;;5.40;99.90;;;;;;4954653;29;21066;-86
2021/11/26 06:20:46;;;;;;;23.92;11.60;;;5.40;99.90;;;;;;4958628;28;20207;-87
2021/11/26 06:23:14;;;;;;;25.07;11.40;;;5.40;99.90;;;;;;4940729;29;20202;-86
2021/11/26 06:25:42;;;;;;;21.00;11.93;;;5.30;99.90;;;;;;4943660;28;20476;-85
2021/11/26 06:28:12;;;;;;;23.55;10.48;;;5.20;99.90;;;;;;4935933;29;20731;-85
2021/11/26 06:30:40;;;;;;;22.93;12.47;;;5.30;99.90;;;;;;4955007;29;20208;-85
2021/11/26 06:33:08;;;;;;;22.83;10.10;;;5.40;99.90;;;;;;4938150;29;20834;-85
2021/11/26 06:35:36;;;;;;;22.50;10.38;;;5.30;99.90;;;;;;4959114;28;20459;-86
2021/11/26 06:38:06;;;;;;;22.23;10.37;;;5.40;99.90;;;;;;4953166;29;20618;-85
2021/11/26 06:40:34;;;;;;;22.97;9.87;;;5.40;99.90;;;;;;4956021;28;20472;-86
2021/11/26 06:43:06;;;;;;;20.60;9.57;;;5.40;99.90;;;;;;4954971;28;20511;-85
2021/11/26 06:45:34;;;;;;;22.67;12.10;;;5.40;99.90;;;;;;4946411;29;20507;-84
2021/11/26 06:48:03;;;;;;;28.25;10.93;;;5.40;99.90;;;;;;4955206;29;20225;-84
2021/11/26 06:50:31;;;;;;;22.60;12.27;;;5.40;99.90;;;;;;4943249;29;20581;-84
2021/11/26 06:52:59;;;;;;;24.40;11.20;;;5.40;99.90;;;;;;4946403;28;20992;-86
2021/11/26 06:55:29;;;;;;;25.97;12.03;;;5.50;99.90;;;;;;4949460;28;20494;-85
2021/11/26 06:57:57;;;;;;;16.90;9.73;;;5.60;99.90;;;;;;4946994;28;20551;-85
2021/11/26 07:00:26;;;;;;;26.57;11.07;;;5.40;99.90;;;;;;4933702;29;20453;-84
2021/11/26 07:02:54;;;;;;;29.30;12.00;;;5.40;99.90;;;;;;4945662;28;20460;-85
2021/11/26 07:05:22;;;;;;;23.63;10.60;;;5.60;99.90;;;;;;4955450;28;20460;-84
2021/11/26 07:07:51;;;;;;;20.87;9.80;;;5.50;99.90;;;;;;4955142;28;20237;-84
2021/11/26 07:10:19;;;;;;;20.45;9.68;;;5.40;99.90;;;;;;4938549;29;20526;-83
2021/11/26 07:12:49;;;;;;;18.55;9.40;;;5.40;99.90;;;;;;4951578;29;20231;-84
2021/11/26 07:15:18;;;;;;;21.05;9.60;;;5.40;99.90;;;;;;4961975;28;20668;-84
2021/11/26 07:17:46;;;;;;;21.15;10.77;;;5.30;99.90;;;;;;4945749;28;20243;-85
2021/11/26 07:20:15;;;;;;;19.87;11.10;;;5.30;99.90;;;;;;4950658;29;20667;-85
2021/11/26 07:22:44;;;;;;;22.63;10.63;;;5.40;99.90;;;;;;4948060;29;20463;-85
2021/11/26 07:25:12;;;;;;;21.93;10.23;;;5.40;99.90;;;;;;4942118;29;20480;-84
2021/11/26 07:27:41;;;;;;;20.63;9.77;;;5.60;99.90;;;;;;4943558;29;20546;-84
2021/11/26 07:30:13;;;;;;;20.43;10.53;;;5.30;99.90;;;;;;4944134;28;20468;-83
2021/11/26 07:32:43;;;;;;;20.37;11.47;;;5.20;99.90;;;;;;4950207;28;20587;-84
2021/11/26 07:35:13;;;;;;;21.10;8.63;;;5.30;99.90;;;;;;4949273;29;20956;-84
2021/11/26 07:37:41;;;;;;;23.53;11.73;;;5.40;99.90;;;;;;4924215;28;20497;-84
2021/11/26 07:40:15;;;;;;;24.00;9.40;;;5.30;99.90;;;;;;4952241;28;20476;-85
2021/11/26 07:42:44;;;;;;;21.73;10.50;;;5.00;99.90;;;;;;4951497;29;20464;-84
2021/11/26 07:45:15;;;;;;;22.15;9.05;;;5.00;99.90;;;;;;4944088;28;20200;-85
2021/11/26 07:47:43;;;;;;;20.17;11.07;;;5.10;99.90;;;;;;4947202;28;20750;-84
2021/11/26 07:50:13;;;;;;;21.83;10.88;;;5.20;99.90;;;;;;4951791;28;21017;-84
2021/11/26 07:52:42;;;;;;;24.47;13.00;;;5.10;99.90;;;;;;4940785;28;20291;-84
2021/11/26 07:55:11;;;;;;;26.25;10.85;;;5.10;99.90;;;;;;4953417;28;20452;-85
2021/11/26 07:57:45;;;;;;;19.40;9.55;;;5.30;99.90;;;;;;4944744;28;20233;-84
2021/11/26 08:00:16;;;;;;;18.70;10.35;;;5.60;99.90;;;;;;4948945;28;20217;-84
2021/11/26 08:02:45;;;;;;;25.60;12.07;;;5.40;99.90;;;;;;4942740;28;20211;-84
2021/11/26 08:05:13;;;;;;;20.70;9.20;;;5.40;99.90;;;;;;4948209;28;20195;-83
2021/11/26 08:07:42;;;;;;;17.30;9.57;;;5.40;99.90;;;;;;4948230;28;20509;-86
2021/11/26 08:10:11;;;;;;;21.02;9.15;;;5.40;99.90;;;;;;4956165;28;20235;-84
2021/11/26 08:12:42;;;;;;;19.40;11.03;;;5.40;99.90;;;;;;4949982;28;20693;-85
2021/11/26 08:15:16;;;;;;;15.17;7.93;;;5.40;99.90;;;;;;4951883;28;20841;-85
2021/11/26 08:17:50;;;;;;;18.10;7.70;;;5.40;99.90;;;;;;4949822;29;20510;-85
2021/11/26 08:20:18;;;;;;;19.47;10.17;;;5.40;99.90;;;;;;4951362;28;20723;-84
2021/11/26 08:22:48;;;;;;;21.43;8.97;;;5.50;99.90;;;;;;4949588;29;20555;-85
2021/11/26 08:25:17;;;;;;;21.97;10.73;;;5.50;99.90;;;;;;4946149;29;20484;-85
2021/11/26 08:27:46;;;;;;;20.90;9.50;;;5.70;99.90;;;;;;4944756;28;20500;-84
2021/11/26 08:30:17;;;;;;;23.03;10.50;;;5.50;99.90;;;;;;4946070;28;20819;-84
2021/11/26 08:32:46;;;;;;;17.77;9.30;;;5.50;99.90;;;;;;4944564;28;21100;-86
2021/11/26 08:35:14;;;;;;;20.97;8.73;;;5.50;99.90;;;;;;4939067;29;20205;-84
2021/11/26 08:37:43;;;;;;;21.10;11.40;;;5.50;99.90;;;;;;4948255;28;20498;-84
2021/11/26 08:40:12;;;;;;;21.13;9.10;;;5.50;99.90;;;;;;4934256;29;20499;-85
2021/11/26 08:42:41;;;;;;;28.93;13.37;;;5.40;99.90;;;;;;4950678;28;20471;-83
2021/11/26 08:45:11;;;;;;;22.73;9.63;;;5.40;99.90;;;;;;4927819;28;20480;-85
2021/11/26 08:47:42;;;;;;;20.23;9.77;;;5.40;99.90;;;;;;4950402;28;20555;-85
2021/11/26 08:50:14;;;;;;;22.40;11.23;;;5.40;99.90;;;;;;4949135;28;20973;-86
2021/11/26 08:52:43;;;;;;;23.10;10.83;;;5.40;99.90;;;;;;4947300;28;20471;-85
2021/11/26 08:55:15;;;;;;;27.10;12.57;;;5.40;99.90;;;;;;4943059;28;21138;-84
2021/11/26 08:57:50;;;;;;;22.57;12.20;;;5.30;99.90;;;;;;4951173;28;20260;-85
2021/11/26 09:00:21;;;;;;;29.80;12.63;;;5.30;99.90;;;;;;4944859;28;20443;-85
2021/11/26 09:02:51;;;;;;;28.90;11.95;;;5.30;99.90;;;;;;4946371;28;20967;-84
2021/11/26 09:05:20;;;;;;;26.30;11.03;;;5.20;99.90;;;;;;4946802;29;20642;-84
2021/11/26 09:07:48;;;;;;;31.23;12.93;;;5.20;99.90;;;;;;4950307;28;20480;-86
2021/11/26 09:10:18;;;;;;;29.67;11.77;;;5.20;99.90;;;;;;4947604;28;20467;-83
2021/11/26 09:12:47;;;;;;;29.47;11.67;;;5.10;99.90;;;;;;4946931;28;20452;-85
2021/11/26 09:15:15;;;;;;;32.97;14.43;;;5.10;99.90;;;;;;4942854;28;20478;-85
2021/11/26 09:17:44;;;;;;;32.30;13.80;;;4.90;99.90;;;;;;4953502;28;20486;-85
2021/11/26 09:20:14;;;;;;;35.20;13.40;;;5.00;99.90;;;;;;4924953;29;20513;-84
2021/11/26 09:22:42;;;;;;;32.33;13.50;;;5.00;99.90;;;;;;4948523;28;20484;-84
2021/11/26 09:25:11;;;;;;;25.43;13.50;;;5.10;99.90;;;;;;4952845;28;20439;-84
2021/11/26 09:27:40;;;;;;;32.57;15.93;;;5.10;99.90;;;;;;4950035;28;20604;-84
2021/11/26 09:30:10;;;;;;;32.88;14.20;;;5.10;99.90;;;;;;4955627;28;20464;-82
2021/11/26 09:32:39;;;;;;;31.30;16.30;;;5.00;99.90;;;;;;4947314;28;20684;-85
2021/11/26 09:35:08;;;;;;;35.97;14.53;;;4.90;99.90;;;;;;4950619;29;20491;-83
2021/11/26 09:37:38;;;;;;;28.73;12.83;;;5.00;99.90;;;;;;4936792;29;20511;-85
2021/11/26 09:40:10;;;;;;;31.75;14.23;;;5.10;99.90;;;;;;4956475;28;20474;-85
2021/11/26 09:42:42;;;;;;;32.53;14.53;;;5.00;99.90;;;;;;4937265;29;20235;-84
2021/11/26 09:45:14;;;;;;;31.20;14.60;;;5.00;99.90;;;;;;4954339;28;20456;-85
2021/11/26 09:47:42;;;;;;;26.70;12.07;;;5.00;99.90;;;;;;4953972;28;20483;-85
2021/11/26 09:50:12;;;;;;;30.92;13.15;;;5.10;99.90;;;;;;4957965;28;20456;-86
2021/11/26 09:52:46;;;;;;;30.77;13.55;;;5.10;99.90;;;;;;4955773;29;20203;-85
2021/11/26 09:55:18;;;;;;;33.63;12.63;;;5.10;99.90;;;;;;4950466;28;20220;-83
2021/11/26 09:57:47;;;;;;;30.08;11.32;;;5.10;99.90;;;;;;4941533;29;20228;-85
2021/11/26 10:00:18;;;;;;;27.50;12.17;;;5.20;99.90;;;;;;4952600;28;20704;-85
2021/11/26 10:02:54;;;;;;;21.73;11.10;;;5.00;99.90;;;;;;4943452;29;20989;-86
2021/11/26 10:05:23;;;;;;;33.92;12.90;;;5.10;99.90;;;;;;4939512;28;20200;-85
2021/11/26 10:07:54;;;;;;;21.50;12.63;;;5.20;99.90;;;;;;4952469;29;20282;-85
2021/11/26 10:10:25;;;;;;;28.02;11.43;;;5.20;99.90;;;;;;4933232;28;20205;-85
2021/11/26 10:12:58;;;;;;;33.60;14.43;;;5.20;99.90;;;;;;4949151;28;20208;-83
2021/11/26 10:15:35;;;;;;;25.60;12.47;;;5.20;99.90;;;;;;4946670;28;20569;-84
2021/11/26 10:18:10;;;;;;;29.20;12.93;;;5.40;99.90;;;;;;4941562;29;20511;-83
2021/11/26 10:20:52;;;;;;;26.37;11.57;;;5.30;99.90;;;;;;4942010;28;21055;-84
2021/11/26 10:23:23;;;;;;;31.67;13.63;;;5.30;99.90;;;;;;4936605;28;20475;-83
2021/11/26 10:25:52;;;;;;;32.97;13.53;;;5.40;99.90;;;;;;4942698;28;20468;-85
2021/11/26 10:28:21;;;;;;;27.57;14.20;;;5.40;99.90;;;;;;4933400;29;20487;-83
2021/11/26 10:30:51;;;;;;;31.90;14.40;;;5.60;99.90;;;;;;4946295;28;20456;-83
2021/11/26 10:33:23;;;;;;;33.63;16.33;;;5.40;99.90;;;;;;4945417;28;20506;-86
2021/11/26 10:35:54;;;;;;;37.50;18.47;;;5.30;99.90;;;;;;4941154;29;20478;-83
2021/11/26 10:38:26;;;;;;;29.80;13.83;;;5.40;99.90;;;;;;4941967;28;20710;-86
2021/11/26 10:40:58;;;;;;;37.50;13.73;;;5.40;99.90;;;;;;4946119;28;20467;-84
2021/11/26 10:43:33;;;;;;;31.47;13.67;;;5.40;99.90;;;;;;4946299;28;20567;-87
2021/11/26 10:46:17;;;;;;;31.27;11.90;;;5.40;99.90;;;;;;4937855;28;20470;-84
2021/11/26 10:48:58;;;;;;;34.33;15.33;;;5.60;99.90;;;;;;4926824;29;20485;-85
2021/11/26 11:00:09;;;;;;;26.20;11.60;;;5.70;99.90;;;;;;4946445;28;20989;-86
2021/11/26 11:02:40;;;;;;;35.20;17.92;;;5.60;99.90;;;;;;4944843;28;20538;-84
2021/11/26 11:05:10;;;;;;;27.43;13.80;;;5.60;99.90;;;;;;4942963;28;20283;-85
2021/11/26 11:07:41;;;;;;;27.30;13.80;;;5.70;99.90;;;;;;4935927;29;21036;-83
2021/11/26 11:10:15;;;;;;;22.17;11.77;;;5.70;99.90;;;;;;4939245;28;20500;-83
2021/11/26 11:12:43;;;;;;;26.70;11.47;;;5.70;99.90;;;;;;4942534;28;20461;-81
2021/11/26 11:15:13;;;;;;;29.10;12.77;;;5.60;99.90;;;;;;4935614;28;20485;-83
2021/11/26 11:17:41;;;;;;;29.92;15.35;;;5.60;99.90;;;;;;4937267;28;20457;-86
2021/11/26 11:20:12;;;;;;;27.17;13.57;;;5.60;99.90;;;;;;4945494;28;20582;-85
2021/11/26 11:22:40;;;;;;;28.80;13.40;;;5.60;99.90;;;;;;4943626;28;20460;-83
2021/11/26 11:25:12;;;;;;;27.90;11.87;;;5.60;99.90;;;;;;4940860;28;20469;-84
2021/11/26 11:27:41;;;;;;;24.60;11.67;;;5.60;99.90;;;;;;4940191;28;20862;-84
2021/11/26 11:30:11;;;;;;;24.20;10.57;;;5.60;99.90;;;;;;4943472;28;20457;-81
2021/11/26 11:32:40;;;;;;;27.23;11.23;;;5.50;99.90;;;;;;4938842;28;20551;-86
2021/11/26 11:35:11;;;;;;;28.00;14.67;;;5.60;99.90;;;;;;4941151;28;21122;-85
2021/11/26 11:37:41;;;;;;;28.87;12.30;;;5.40;99.90;;;;;;4941995;28;20535;-83
2021/11/26 11:40:10;;;;;;;22.37;11.77;;;5.50;99.90;;;;;;4944421;28;20476;-84
2021/11/26 11:42:42;;;;;;;21.60;11.00;;;5.50;99.90;;;;;;4940274;28;20456;-86
2021/11/26 11:45:13;;;;;;;31.23;13.20;;;5.60;99.90;;;;;;4925691;28;20470;-88
2021/11/26 11:47:47;;;;;;;27.17;12.00;;;5.70;99.90;;;;;;4942918;28;20506;-87
2021/11/26 11:50:18;;;;;;;33.80;13.40;;;5.60;99.90;;;;;;4936888;28;20563;-86
2021/11/26 11:52:51;;;;;;;24.33;11.33;;;5.60;99.90;;;;;;4932838;28;20463;-85
2021/11/26 11:55:22;;;;;;;27.63;12.60;;;5.70;99.90;;;;;;4937635;28;20479;-87
2021/11/26 11:57:55;;;;;;;27.80;14.10;;;5.70;99.90;;;;;;4933082;28;20902;-85
2021/11/26 12:00:28;;;;;;;31.10;12.95;;;5.70;99.90;;;;;;4943171;28;20463;-83
2021/11/26 12:03:07;;;;;;;36.77;13.70;;;5.80;99.90;;;;;;4942678;28;20319;-86
2021/11/26 12:05:36;;;;;;;31.33;12.40;;;5.70;99.90;;;;;;4940513;28;20456;-88
2021/11/26 12:08:11;;;;;;;19.10;10.63;;;5.80;99.90;;;;;;4917428;28;20600;-88
2021/11/26 12:10:44;;;;;;;34.17;12.20;;;5.80;99.90;;;;;;4944439;28;20468;-87
2021/11/26 12:13:28;;;;;;;28.20;10.13;;;5.70;99.90;;;;;;4936797;28;20583;-89
2021/11/26 12:16:08;;;;;;;25.53;11.23;;;5.60;99.90;;;;;;4944334;28;20532;-87
2021/11/26 12:18:39;;;;;;;27.30;13.50;;;5.60;99.90;;;;;;4926777;28;20541;-88
2021/11/26 12:21:07;;;;;;;24.83;11.27;;;5.80;99.90;;;;;;4941322;28;20215;-87
2021/11/26 12:23:49;;;;;;;20.77;12.70;;;5.80;99.90;;;;;;4940080;28;20827;-87
2021/11/26 12:26:21;;;;;;;27.47;10.43;;;5.70;99.90;;;;;;4938066;28;20461;-88
2021/11/26 12:28:55;;;;;;;19.37;9.43;;;5.70;99.90;;;;;;4946844;28;20483;-87
2021/11/26 12:31:30;;;;;;;23.60;11.23;;;5.90;99.90;;;;;;4924827;29;20460;-87
2021/11/26 12:34:01;;;;;;;26.10;10.93;;;5.70;99.90;;;;;;4939105;29;20463;-87
2021/11/26 12:36:40;;;;;;;20.73;9.63;;;5.90;99.90;;;;;;4937825;29;21019;-89
2021/11/26 12:39:13;;;;;;;21.60;10.30;;;5.70;99.90;;;;;;4939929;28;20480;-87
2021/11/26 12:41:44;;;;;;;19.63;9.97;;;5.90;99.90;;;;;;4935770;29;20673;-88
2021/11/26 12:44:23;;;;;;;21.20;11.32;;;5.70;99.90;;;;;;4946293;28;20460;-88
2021/11/26 12:46:56;;;;;;;16.47;9.70;;;5.60;1.00;;;;;;4938368;28;20198;-87
2021/11/26 12:52:14;;;;;;;16.23;7.93;;;5.80;99.90;;;;;;4921161;28;20511;-87
2021/11/26 12:54:44;;;;;;;16.20;8.47;;;5.70;99.90;;;;;;4938023;28;20469;-86
2021/11/26 12:57:20;;;;;;;19.03;9.27;;;5.70;99.90;;;;;;4939066;28;21080;-86
2021/11/26 12:59:52;;;;;;;19.40;9.23;;;5.90;99.90;;;;;;4941670;28;20470;-86
2021/11/26 13:02:24;;;;;;;18.03;8.80;;;5.50;1.00;;;;;;4935723;28;20523;-88